Time;durP1;ratioP1;P1;durP2;ratioP2;P2;SDS_P1;SDS_P2;PMS_P1;PMS_P2;Temp;Humidity;BMP_temperature;BMP_pressure;BME280_temperature;BME280_humidity;BME280_pressure;Samples;Min_cycle;Max_cycle;Signal;HPM_P1;HPM_P2
2023/03/23 00:02:32;;;;;;;23.50;12.50;;;10.50;99.90;;;;;;5089536;28;20406;-76
2023/03/23 00:05:00;;;;;;;22.13;13.00;;;10.50;99.90;;;;;;5110125;28;20396;-76
2023/03/23 00:07:27;;;;;;;21.67;12.00;;;10.50;99.90;;;;;;5111980;27;20439;-76
2023/03/23 00:09:54;;;;;;;23.65;12.77;;;10.50;99.90;;;;;;5093455;28;20415;-76
2023/03/23 00:12:32;;;;;;;23.45;12.50;;;10.50;99.90;;;;;;5111991;27;20428;-76
2023/03/23 00:15:03;;;;;;;15.15;9.48;;;10.50;99.90;;;;;;5111663;27;20793;-76
2023/03/23 00:17:29;;;;;;;10.93;7.22;;;10.40;99.90;;;;;;5111500;27;20786;-76
2023/03/23 00:19:55;;;;;;;15.27;10.13;;;10.50;99.90;;;;;;5111665;27;20430;-76
2023/03/23 00:22:21;;;;;;;16.65;10.90;;;10.50;99.90;;;;;;5093122;28;20411;-76
2023/03/23 00:24:50;;;;;;;17.38;11.90;;;10.50;99.90;;;;;;5113620;27;20758;-76
2023/03/23 00:27:16;;;;;;;19.17;12.85;;;10.50;99.90;;;;;;5108563;28;20746;-76
2023/03/23 00:29:44;;;;;;;22.90;15.70;;;10.50;99.90;;;;;;5109516;28;20404;-76
2023/03/23 00:32:14;;;;;;;22.65;15.48;;;10.50;99.90;;;;;;5088303;28;20491;-77
2023/03/23 00:34:42;;;;;;;24.85;16.23;;;10.60;99.90;;;;;;5114670;27;20487;-76
2023/03/23 00:37:09;;;;;;;24.33;16.63;;;10.60;99.90;;;;;;5114121;27;20428;-76
2023/03/23 00:39:36;;;;;;;22.95;16.17;;;10.60;99.90;;;;;;5076992;27;20432;-76
2023/03/23 00:42:03;;;;;;;22.17;16.23;;;10.70;99.90;;;;;;5112171;27;20491;-76
2023/03/23 00:44:31;;;;;;;23.13;16.00;;;10.70;99.90;;;;;;5108107;28;20483;-76
2023/03/23 00:47:00;;;;;;;23.23;16.45;;;10.70;99.90;;;;;;5091173;28;20414;-76
2023/03/23 00:49:26;;;;;;;23.90;16.27;;;10.70;99.90;;;;;;5113806;27;20398;-76
2023/03/23 00:51:57;;;;;;;21.08;14.40;;;10.70;99.90;;;;;;5116882;27;20454;-76
2023/03/23 00:54:24;;;;;;;19.40;12.77;;;10.70;99.90;;;;;;5114389;27;20494;-76
2023/03/23 00:56:51;;;;;;;16.70;11.57;;;10.70;99.90;;;;;;5115645;27;20404;-76
2023/03/23 00:59:16;;;;;;;18.27;12.18;;;10.70;99.90;;;;;;5109149;28;20407;-76
2023/03/23 01:01:42;;;;;;;19.23;12.20;;;10.60;99.90;;;;;;5091709;28;20405;-76
2023/03/23 01:04:08;;;;;;;15.83;11.13;;;10.60;99.90;;;;;;5102072;27;20399;-76
2023/03/23 01:06:38;;;;;;;16.43;11.23;;;10.60;99.90;;;;;;5092350;28;20401;-76
2023/03/23 01:09:05;;;;;;;18.60;11.57;;;10.60;99.90;;;;;;5120985;27;20394;-76
2023/03/23 01:11:31;;;;;;;19.83;12.75;;;10.60;99.90;;;;;;5078816;28;20429;-76
2023/03/23 01:13:57;;;;;;;19.30;13.47;;;10.60;99.90;;;;;;5109169;27;20391;-76
2023/03/23 01:16:23;;;;;;;22.08;14.45;;;10.60;99.90;;;;;;5092245;28;20413;-76
2023/03/23 01:18:48;;;;;;;21.40;14.40;;;10.50;99.90;;;;;;5090924;28;20453;-76
2023/03/23 01:21:17;;;;;;;19.08;12.98;;;10.50;99.90;;;;;;5066927;28;20510;-76
2023/03/23 01:23:43;;;;;;;18.30;12.68;;;10.60;99.90;;;;;;5112247;27;20816;-76
2023/03/23 01:26:12;;;;;;;12.68;9.30;;;10.60;99.90;;;;;;5109735;28;20468;-76
2023/03/23 01:28:38;;;;;;;12.35;8.18;;;10.60;99.90;;;;;;5090337;28;20406;-76
2023/03/23 01:31:08;;;;;;;10.85;5.70;;;10.50;99.90;;;;;;5083472;28;20419;-76
2023/03/23 01:33:34;;;;;;;8.03;3.83;;;10.50;99.90;;;;;;5090542;28;21628;-76
2023/03/23 01:36:09;;;;;;;5.83;3.00;;;10.40;99.90;;;;;;5109254;28;20937;-76
2023/03/23 01:38:35;;;;;;;5.68;3.20;;;10.30;99.90;;;;;;5088382;28;20815;-76
2023/03/23 01:41:01;;;;;;;6.13;3.10;;;10.20;99.90;;;;;;5105907;28;20428;-76
2023/03/23 01:43:27;;;;;;;6.13;3.22;;;10.10;99.90;;;;;;5090812;28;20461;-76
2023/03/23 01:45:53;;;;;;;5.80;2.58;;;10.00;99.90;;;;;;5109790;28;20392;-76
2023/03/23 01:48:27;;;;;;;5.85;2.90;;;10.00;99.90;;;;;;5111047;27;20392;-76
2023/03/23 01:51:15;;;;;;;5.30;2.33;;;9.90;99.90;;;;;;5087376;27;20409;-76
2023/03/23 01:53:47;;;;;;;4.15;2.03;;;9.90;99.90;;;;;;5104584;27;20924;-76
2023/03/23 01:56:20;;;;;;;4.30;1.95;;;9.90;99.90;;;;;;5085458;27;20434;-76
2023/03/23 01:58:46;;;;;;;4.75;2.30;;;9.90;99.90;;;;;;5113120;27;20419;-76
2023/03/23 02:01:15;;;;;;;6.15;2.85;;;9.80;99.90;;;;;;5082458;28;21043;-76
2023/03/23 02:03:44;;;;;;;6.22;3.45;;;9.90;99.90;;;;;;5108901;28;20455;-76
2023/03/23 02:06:11;;;;;;;7.57;4.38;;;9.80;99.90;;;;;;5087305;28;20839;-76
2023/03/23 02:08:38;;;;;;;9.23;5.82;;;9.90;99.90;;;;;;5100866;28;20396;-76
2023/03/23 02:11:18;;;;;;;9.07;6.22;;;9.90;99.90;;;;;;5103414;27;20815;-76
2023/03/23 02:13:45;;;;;;;11.18;6.68;;;10.00;99.90;;;;;;5103096;28;20404;-77
2023/03/23 02:16:35;;;;;;;10.40;7.05;;;10.10;99.90;;;;;;5106449;28;20428;-76
2023/03/23 02:19:16;;;;;;;12.00;7.07;;;10.20;99.90;;;;;;5110766;27;20407;-76
2023/03/23 02:22:00;;;;;;;12.40;7.10;;;10.20;99.90;;;;;;5109066;28;20412;-76
2023/03/23 02:24:38;;;;;;;13.63;7.22;;;10.30;99.90;;;;;;5098636;28;20403;-77
2023/03/23 02:27:16;;;;;;;11.45;6.72;;;10.30;99.90;;;;;;5091621;27;20402;-76
2023/03/23 02:29:57;;;;;;;10.20;6.63;;;10.40;99.90;;;;;;5090561;28;20401;-77
2023/03/23 02:32:23;;;;;;;10.43;6.05;;;10.40;99.90;;;;;;5109513;27;20405;-76
2023/03/23 02:34:57;;;;;;;10.50;5.63;;;10.50;99.90;;;;;;5108595;28;20761;-77
2023/03/23 02:37:49;;;;;;;9.27;6.10;;;10.50;99.90;;;;;;5071708;28;20458;-76
2023/03/23 02:40:40;;;;;;;10.27;5.68;;;10.50;99.90;;;;;;5102168;27;20418;-76
2023/03/23 02:43:14;;;;;;;11.47;5.50;;;10.50;99.90;;;;;;5082232;27;20415;-77
2023/03/23 02:45:42;;;;;;;9.75;5.18;;;10.50;99.90;;;;;;5111801;27;20957;-76
2023/03/23 02:48:09;;;;;;;10.60;5.10;;;10.50;99.90;;;;;;5108603;28;20554;-76
2023/03/23 02:50:37;;;;;;;9.53;5.33;;;10.50;99.90;;;;;;5092547;27;20487;-77
2023/03/23 02:53:08;;;;;;;9.45;5.10;;;10.50;99.90;;;;;;5088098;28;20415;-76
2023/03/23 02:55:40;;;;;;;7.80;4.75;;;10.50;99.90;;;;;;5108958;28;20396;-77
2023/03/23 02:58:06;;;;;;;9.18;5.10;;;10.50;99.90;;;;;;5110306;27;20968;-76
2023/03/23 03:00:31;;;;;;;9.33;4.40;;;10.50;99.90;;;;;;5110566;27;20571;-77
2023/03/23 03:02:57;;;;;;;8.57;4.28;;;10.50;99.90;;;;;;5112265;27;20400;-76
2023/03/23 03:05:51;;;;;;;8.80;4.07;;;10.50;99.90;;;;;;5105264;28;20465;-76
2023/03/23 03:08:28;;;;;;;7.35;3.67;;;10.50;99.90;;;;;;5109438;27;20400;-76
2023/03/23 03:11:08;;;;;;;8.43;4.00;;;10.50;99.90;;;;;;5112200;27;20416;-76
2023/03/23 03:13:42;;;;;;;6.85;3.80;;;10.60;99.90;;;;;;5111474;27;20402;-77
2023/03/23 03:16:25;;;;;;;10.47;3.87;;;10.60;99.90;;;;;;5107825;28;20443;-76
2023/03/23 03:19:05;;;;;;;8.43;3.60;;;10.60;99.90;;;;;;5105495;28;20426;-76
2023/03/23 03:21:35;;;;;;;6.93;3.90;;;10.60;99.90;;;;;;5107485;28;20460;-76
2023/03/23 03:24:03;;;;;;;7.82;3.75;;;10.70;99.90;;;;;;5085270;28;20409;-76
2023/03/23 03:26:32;;;;;;;7.72;3.65;;;10.70;99.90;;;;;;5090237;27;20750;-76
2023/03/23 03:28:58;;;;;;;9.02;3.58;;;10.70;99.90;;;;;;5110226;27;20400;-76
2023/03/23 03:31:35;;;;;;;8.82;3.60;;;10.80;99.90;;;;;;5091567;28;20444;-77
2023/03/23 03:34:01;;;;;;;7.97;3.63;;;10.80;99.90;;;;;;5109910;28;20736;-76
2023/03/23 03:36:34;;;;;;;6.97;3.40;;;10.80;99.90;;;;;;5109990;28;20411;-77
2023/03/23 03:39:07;;;;;;;8.00;3.50;;;10.80;99.90;;;;;;5110523;28;20400;-76
2023/03/23 03:41:34;;;;;;;7.27;3.20;;;10.80;99.90;;;;;;5110567;28;20483;-76
2023/03/23 03:44:00;;;;;;;8.10;3.70;;;10.80;99.90;;;;;;5112361;27;20403;-76
2023/03/23 03:46:29;;;;;;;6.10;3.15;;;10.80;99.90;;;;;;5113901;27;20553;-76
2023/03/23 03:48:56;;;;;;;7.60;3.03;;;10.80;99.90;;;;;;5112008;28;20396;-77
2023/03/23 03:51:22;;;;;;;7.97;3.38;;;10.80;99.90;;;;;;5093882;28;21004;-76
2023/03/23 03:53:48;;;;;;;8.68;3.10;;;10.80;99.90;;;;;;5114176;27;20400;-77
2023/03/23 03:56:13;;;;;;;7.93;2.97;;;10.80;99.90;;;;;;5094001;28;20400;-77
2023/03/23 03:58:42;;;;;;;6.78;2.80;;;10.80;99.90;;;;;;5112061;28;20439;-77
2023/03/23 04:01:12;;;;;;;6.28;3.05;;;10.80;99.90;;;;;;5093466;28;20432;-77
2023/03/23 04:03:38;;;;;;;5.78;2.75;;;10.80;99.90;;;;;;5094773;27;20437;-77
2023/03/23 04:06:04;;;;;;;6.03;2.83;;;10.90;99.90;;;;;;5093156;28;20400;-77
2023/03/23 04:08:31;;;;;;;6.57;3.00;;;10.90;99.90;;;;;;5092956;28;20407;-77
2023/03/23 04:10:57;;;;;;;6.82;3.33;;;10.90;99.90;;;;;;5111590;27;20400;-76
2023/03/23 04:13:23;;;;;;;6.68;3.20;;;10.90;99.90;;;;;;5111184;28;20449;-76
2023/03/23 04:15:49;;;;;;;7.57;3.00;;;10.90;99.90;;;;;;5095203;28;20408;-76
2023/03/23 04:18:17;;;;;;;9.63;3.37;;;10.80;99.90;;;;;;5111486;28;20408;-73
2023/03/23 04:20:46;;;;;;;7.13;3.05;;;10.70;99.90;;;;;;5097195;28;20439;-74
2023/03/23 04:23:13;;;;;;;7.90;3.47;;;10.60;99.90;;;;;;5111044;28;20914;-77
2023/03/23 04:25:41;;;;;;;7.82;2.92;;;10.50;99.90;;;;;;5093156;28;20408;-76
2023/03/23 04:28:09;;;;;;;8.25;3.40;;;10.40;99.90;;;;;;5092786;28;20480;-76
2023/03/23 04:30:36;;;;;;;7.40;3.50;;;10.40;99.90;;;;;;5111914;28;20909;-77
2023/03/23 04:33:02;;;;;;;6.32;3.80;;;10.30;99.90;;;;;;5111068;28;20408;-76
2023/03/23 04:35:29;;;;;;;6.85;3.58;;;10.30;99.90;;;;;;5111436;28;20973;-77
2023/03/23 04:37:55;;;;;;;4.35;1.60;;;10.30;99.90;;;;;;5110729;28;20401;-77
2023/03/23 04:40:22;;;;;;;3.40;0.87;;;10.30;99.90;;;;;;5111262;28;20425;-77
2023/03/23 04:42:50;;;;;;;3.20;0.77;;;10.20;99.90;;;;;;5112595;27;20466;-77
2023/03/23 04:45:21;;;;;;;3.13;0.60;;;10.00;99.90;;;;;;5101861;27;20396;-77
2023/03/23 04:47:52;;;;;;;2.47;0.50;;;9.90;99.90;;;;;;5111442;27;20868;-77
2023/03/23 04:50:21;;;;;;;2.10;0.55;;;9.80;99.90;;;;;;5111462;28;20570;-77
2023/03/23 04:52:47;;;;;;;1.85;0.50;;;9.80;99.90;;;;;;5109997;27;20897;-78
2023/03/23 04:55:13;;;;;;;2.33;0.70;;;9.70;99.90;;;;;;5111137;28;20400;-77
2023/03/23 04:57:40;;;;;;;4.00;0.88;;;9.70;99.90;;;;;;5092261;28;20418;-78
2023/03/23 05:00:12;;;;;;;4.30;0.82;;;9.60;99.90;;;;;;5092594;28;20492;-78
2023/03/23 05:02:41;;;;;;;5.40;0.80;;;9.60;99.90;;;;;;5089302;28;20411;-77
2023/03/23 05:05:07;;;;;;;4.50;0.50;;;9.60;99.90;;;;;;5110236;27;20396;-77
2023/03/23 05:07:34;;;;;;;4.13;0.77;;;9.50;99.90;;;;;;5111556;28;20403;-78
2023/03/23 05:09:59;;;;;;;4.05;0.75;;;9.40;99.90;;;;;;5110720;28;20400;-77
2023/03/23 05:12:26;;;;;;;4.95;0.77;;;9.40;99.90;;;;;;5069054;28;20443;-77
2023/03/23 05:14:52;;;;;;;5.10;0.90;;;9.40;99.90;;;;;;5092629;28;20761;-77
2023/03/23 05:17:18;;;;;;;5.88;0.80;;;9.40;99.90;;;;;;5075152;28;20408;-78
2023/03/23 05:19:47;;;;;;;5.20;0.75;;;9.40;99.90;;;;;;5110375;27;20769;-77
2023/03/23 05:22:14;;;;;;;5.17;1.10;;;9.50;99.90;;;;;;5110157;28;20530;-77
2023/03/23 05:24:40;;;;;;;5.82;0.90;;;9.50;99.90;;;;;;5110732;27;20388;-77
2023/03/23 05:27:07;;;;;;;7.25;1.35;;;9.50;99.90;;;;;;5106617;27;20401;-77
2023/03/23 05:29:35;;;;;;;5.07;0.90;;;9.60;99.90;;;;;;5105221;28;20392;-77
2023/03/23 05:32:03;;;;;;;6.93;1.20;;;9.60;99.90;;;;;;5110451;28;20403;-77
2023/03/23 05:34:32;;;;;;;11.13;2.13;;;9.60;99.90;;;;;;5091843;27;20393;-77
2023/03/23 05:36:58;;;;;;;5.22;1.17;;;9.60;99.90;;;;;;5109961;28;20400;-77
2023/03/23 05:39:25;;;;;;;7.23;1.23;;;9.60;99.90;;;;;;5093707;28;20979;-77
2023/03/23 05:41:51;;;;;;;8.75;2.55;;;9.70;99.90;;;;;;5109625;28;20404;-77
2023/03/23 05:44:17;;;;;;;6.75;1.70;;;9.80;99.90;;;;;;5109618;27;20479;-77
2023/03/23 05:46:43;;;;;;;10.00;2.40;;;9.90;99.90;;;;;;5109951;28;20785;-77
2023/03/23 05:49:09;;;;;;;11.10;2.40;;;9.90;99.90;;;;;;5110050;27;20398;-77
2023/03/23 05:51:35;;;;;;;8.33;2.20;;;10.00;99.90;;;;;;5110175;27;20396;-77
2023/03/23 05:54:01;;;;;;;10.93;3.08;;;10.10;99.90;;;;;;5109995;27;20398;-77
2023/03/23 05:56:27;;;;;;;9.83;2.63;;;10.20;99.90;;;;;;5087640;28;20481;-77
2023/03/23 05:58:54;;;;;;;10.68;2.70;;;10.30;99.90;;;;;;5107570;27;20578;-77
2023/03/23 06:01:20;;;;;;;11.55;2.70;;;10.30;99.90;;;;;;5109843;27;20432;-78
2023/03/23 06:03:46;;;;;;;9.57;2.00;;;10.40;99.90;;;;;;5092440;27;20408;-78
2023/03/23 06:06:12;;;;;;;9.23;2.58;;;10.50;99.90;;;;;;5108297;27;20396;-78
2023/03/23 06:08:38;;;;;;;13.05;2.83;;;10.50;99.90;;;;;;5109478;27;20401;-77
2023/03/23 06:11:05;;;;;;;14.75;2.78;;;10.50;99.90;;;;;;5108639;27;20392;-77
2023/03/23 06:13:30;;;;;;;13.87;2.77;;;10.50;99.90;;;;;;5093797;27;20438;-78
2023/03/23 06:15:57;;;;;;;11.73;2.27;;;10.50;99.90;;;;;;5065354;28;20474;-78
2023/03/23 06:18:23;;;;;;;12.73;2.58;;;10.60;99.90;;;;;;5112716;27;20419;-78
2023/03/23 06:20:50;;;;;;;13.27;2.90;;;10.50;99.90;;;;;;5108338;27;20428;-77
2023/03/23 06:23:17;;;;;;;12.57;2.57;;;10.60;99.90;;;;;;5108033;28;20516;-78
2023/03/23 06:25:43;;;;;;;15.05;2.40;;;10.60;99.90;;;;;;5089842;28;20396;-78
2023/03/23 06:28:10;;;;;;;13.38;2.60;;;10.60;99.90;;;;;;5108220;27;20393;-77
2023/03/23 06:30:36;;;;;;;14.10;2.90;;;10.60;99.90;;;;;;5108788;28;20512;-78
2023/03/23 06:33:05;;;;;;;15.93;2.83;;;10.60;99.90;;;;;;5108276;28;20492;-78
2023/03/23 06:35:31;;;;;;;17.40;2.78;;;10.50;99.90;;;;;;5108322;27;20409;-77
2023/03/23 06:38:01;;;;;;;18.02;3.03;;;10.50;99.90;;;;;;5112349;27;20420;-75
2023/03/23 06:40:28;;;;;;;14.88;3.30;;;10.50;99.90;;;;;;5102913;27;20873;-76
2023/03/23 06:42:54;;;;;;;17.98;3.08;;;10.60;99.90;;;;;;5102957;27;20426;-78
2023/03/23 06:45:19;;;;;;;16.38;3.17;;;10.60;99.90;;;;;;5107107;27;20432;-78
2023/03/23 06:47:48;;;;;;;14.70;2.67;;;10.60;99.90;;;;;;5111064;27;20423;-78
2023/03/23 06:50:15;;;;;;;15.77;3.13;;;10.50;99.90;;;;;;5107627;28;20489;-78
2023/03/23 06:52:45;;;;;;;14.13;2.85;;;10.60;99.90;;;;;;5105596;27;20464;-77
2023/03/23 06:55:11;;;;;;;19.50;3.00;;;10.60;99.90;;;;;;5107127;28;20449;-77
2023/03/23 06:57:37;;;;;;;14.18;2.85;;;10.50;99.90;;;;;;5111681;27;20463;-78
2023/03/23 07:00:05;;;;;;;15.85;2.70;;;10.50;99.90;;;;;;5090582;28;20966;-77
2023/03/23 07:02:31;;;;;;;14.73;2.38;;;10.50;99.90;;;;;;5109085;27;20528;-77
2023/03/23 07:04:57;;;;;;;13.23;2.35;;;10.50;99.90;;;;;;5065259;28;20741;-78
2023/03/23 07:07:23;;;;;;;11.30;2.20;;;10.60;99.90;;;;;;5089574;28;20426;-78
2023/03/23 07:09:48;;;;;;;16.58;2.65;;;10.50;99.90;;;;;;5108894;27;20405;-78
2023/03/23 07:12:14;;;;;;;14.00;2.10;;;10.50;99.90;;;;;;5112653;27;20411;-77
2023/03/23 07:14:39;;;;;;;9.63;2.08;;;10.50;99.90;;;;;;5107607;28;20445;-78
2023/03/23 07:17:07;;;;;;;11.73;1.63;;;10.50;99.90;;;;;;5090016;28;20443;-77
2023/03/23 07:19:33;;;;;;;7.00;1.20;;;10.50;99.90;;;;;;5108030;28;20407;-77
2023/03/23 07:21:58;;;;;;;8.27;1.50;;;10.50;99.90;;;;;;5092711;28;20901;-78
2023/03/23 07:24:24;;;;;;;8.87;1.20;;;10.50;99.90;;;;;;5081679;28;20412;-77
2023/03/23 07:26:50;;;;;;;11.52;2.05;;;10.40;99.90;;;;;;5080772;28;20399;-77
2023/03/23 07:29:16;;;;;;;6.97;1.30;;;10.50;99.90;;;;;;5101700;28;20430;-77
2023/03/23 07:31:42;;;;;;;10.20;1.23;;;10.50;99.90;;;;;;5109986;28;20400;-77
2023/03/23 07:34:08;;;;;;;7.53;1.30;;;10.50;99.90;;;;;;5087432;28;20991;-77
2023/03/23 07:36:37;;;;;;;10.73;1.40;;;10.50;99.90;;;;;;5066061;28;20402;-77
2023/03/23 07:39:05;;;;;;;10.68;1.70;;;10.50;99.90;;;;;;5101447;28;20416;-77
2023/03/23 07:41:31;;;;;;;8.75;1.42;;;10.50;99.90;;;;;;5093355;28;20489;-77
2023/03/23 07:43:57;;;;;;;10.45;1.55;;;10.50;99.90;;;;;;5104211;28;20406;-77
2023/03/23 07:46:23;;;;;;;11.98;2.33;;;10.50;99.90;;;;;;5115871;28;20475;-77
2023/03/23 07:48:49;;;;;;;13.02;2.03;;;10.50;99.90;;;;;;5089938;28;20806;-77
2023/03/23 07:51:16;;;;;;;13.48;2.80;;;10.50;99.90;;;;;;5107726;28;20464;-77
2023/03/23 07:53:44;;;;;;;13.38;2.72;;;10.50;99.90;;;;;;5089477;28;20404;-77
2023/03/23 07:56:12;;;;;;;14.02;2.40;;;10.50;99.90;;;;;;5108041;28;20393;-78
2023/03/23 07:58:37;;;;;;;17.03;2.90;;;10.60;99.90;;;;;;5108555;28;20782;-77
2023/03/23 08:01:03;;;;;;;15.05;3.05;;;10.70;99.90;;;;;;5107554;28;20502;-78
2023/03/23 08:03:29;;;;;;;15.60;2.40;;;10.70;99.90;;;;;;5108682;28;20404;-78
2023/03/23 08:05:59;;;;;;;17.10;3.17;;;10.80;99.90;;;;;;5093222;28;20401;-77
2023/03/23 08:08:25;;;;;;;16.50;3.53;;;10.80;99.90;;;;;;5116544;28;20404;-78
2023/03/23 08:10:50;;;;;;;16.30;3.10;;;10.90;99.90;;;;;;5101558;28;20425;-78
2023/03/23 08:13:16;;;;;;;15.20;2.97;;;10.90;99.90;;;;;;5107721;28;20392;-77
2023/03/23 08:15:43;;;;;;;20.30;3.17;;;11.00;99.90;;;;;;5107663;28;20781;-78
2023/03/23 08:18:09;;;;;;;19.90;3.80;;;11.10;99.90;;;;;;5107630;28;20393;-78
2023/03/23 08:20:35;;;;;;;19.23;3.80;;;11.20;99.90;;;;;;5110177;28;20424;-78
2023/03/23 08:23:02;;;;;;;22.85;4.47;;;11.20;99.90;;;;;;5107326;28;20400;-77
2023/03/23 08:25:31;;;;;;;21.52;3.40;;;11.20;99.90;;;;;;5111657;27;20407;-77
2023/03/23 08:27:57;;;;;;;17.73;3.38;;;11.30;99.90;;;;;;5113986;27;20405;-78
2023/03/23 08:30:24;;;;;;;20.67;3.78;;;11.30;99.90;;;;;;5111666;28;21228;-78
2023/03/23 08:32:50;;;;;;;19.60;3.92;;;11.30;99.90;;;;;;5110378;27;20393;-77
2023/03/23 08:35:17;;;;;;;21.03;3.67;;;11.40;99.90;;;;;;5087585;28;20748;-78
2023/03/23 08:37:43;;;;;;;19.63;3.20;;;11.40;99.90;;;;;;5107202;28;20389;-78
2023/03/23 08:40:11;;;;;;;20.92;3.63;;;11.40;99.90;;;;;;5113660;27;20428;-78
2023/03/23 08:42:42;;;;;;;17.30;3.70;;;11.50;99.90;;;;;;5111135;28;20392;-78
2023/03/23 08:45:11;;;;;;;22.10;3.72;;;11.60;99.90;;;;;;5101377;28;20720;-78
2023/03/23 08:47:37;;;;;;;18.60;3.70;;;11.70;99.90;;;;;;5111705;28;20404;-77
2023/03/23 08:50:06;;;;;;;23.00;3.88;;;11.60;99.90;;;;;;5093371;28;20404;-78
2023/03/23 08:52:32;;;;;;;24.02;4.43;;;11.60;99.90;;;;;;5092481;28;20799;-77
2023/03/23 08:54:57;;;;;;;22.50;3.75;;;11.60;99.90;;;;;;5092995;28;20396;-77
2023/03/23 08:57:26;;;;;;;18.83;3.67;;;11.60;99.90;;;;;;5110306;28;20408;-78
2023/03/23 08:59:54;;;;;;;22.02;3.60;;;11.70;99.90;;;;;;5096345;28;20416;-78
2023/03/23 09:02:20;;;;;;;17.27;3.60;;;11.70;99.90;;;;;;5080645;28;20488;-77
2023/03/23 09:04:46;;;;;;;19.58;4.25;;;11.80;99.90;;;;;;5102578;28;20813;-77
2023/03/23 09:07:14;;;;;;;24.13;4.50;;;11.90;99.90;;;;;;5092461;28;20404;-78
2023/03/23 09:09:40;;;;;;;26.63;4.68;;;11.90;99.90;;;;;;5084698;28;20769;-77
2023/03/23 09:12:08;;;;;;;19.23;3.70;;;12.00;99.90;;;;;;5110719;28;20487;-77
2023/03/23 09:14:34;;;;;;;20.40;3.67;;;12.10;99.90;;;;;;5092588;28;20946;-78
2023/03/23 09:17:00;;;;;;;26.15;4.68;;;12.10;99.90;;;;;;5109573;28;20397;-77
2023/03/23 09:19:27;;;;;;;21.90;3.67;;;12.10;99.90;;;;;;5110512;28;20449;-77
2023/03/23 09:21:52;;;;;;;22.63;4.10;;;12.10;99.90;;;;;;5109990;28;20478;-77
2023/03/23 09:24:18;;;;;;;23.27;4.13;;;12.10;99.90;;;;;;5094852;28;20491;-78
2023/03/23 09:26:45;;;;;;;17.02;3.70;;;12.10;99.90;;;;;;5114707;27;20416;-77
2023/03/23 09:29:12;;;;;;;21.58;4.30;;;12.30;99.90;;;;;;5092057;28;20811;-78
2023/03/23 09:31:39;;;;;;;19.97;3.73;;;12.40;99.90;;;;;;5110038;28;20401;-78
2023/03/23 09:34:06;;;;;;;21.55;4.40;;;12.50;99.90;;;;;;5092099;28;20411;-78
2023/03/23 09:36:32;;;;;;;20.92;4.05;;;12.50;99.90;;;;;;5090994;28;20462;-78
2023/03/23 09:38:59;;;;;;;21.65;3.70;;;12.40;99.90;;;;;;5103524;27;20398;-78
2023/03/23 09:41:54;;;;;;;22.63;4.10;;;12.50;99.90;;;;;;5090695;28;20472;-78
2023/03/23 09:44:36;;;;;;;23.83;4.75;;;13.00;99.90;;;;;;5112706;27;20409;-75
2023/03/23 09:47:02;;;;;;;21.20;3.72;;;13.30;99.90;;;;;;5102798;28;20405;-76
2023/03/23 09:49:28;;;;;;;22.75;4.07;;;13.60;99.90;;;;;;5094939;27;20426;-76
2023/03/23 09:51:59;;;;;;;21.33;3.80;;;13.70;99.90;;;;;;5110184;28;20401;-76
2023/03/23 09:54:40;;;;;;;21.80;4.55;;;13.50;99.90;;;;;;5085685;28;20411;-76
2023/03/23 09:57:32;;;;;;;23.90;4.57;;;13.30;99.90;;;;;;5113005;27;20409;-76
2023/03/23 10:00:10;;;;;;;20.63;3.83;;;13.10;99.90;;;;;;5109006;28;20452;-76
2023/03/23 10:02:47;;;;;;;17.02;3.50;;;12.90;99.90;;;;;;5109983;27;20404;-76
2023/03/23 10:05:27;;;;;;;21.27;3.75;;;12.70;99.90;;;;;;5109932;28;20403;-76
2023/03/23 10:07:54;;;;;;;18.17;3.88;;;12.90;99.90;;;;;;5109360;28;20460;-76
2023/03/23 10:10:23;;;;;;;19.52;3.85;;;13.30;99.90;;;;;;5109364;28;20392;-76
2023/03/23 10:13:31;;;;;;;16.20;3.17;;;13.90;99.90;;;;;;5100826;28;20533;-76
2023/03/23 10:15:58;;;;;;;19.42;3.90;;;14.50;99.90;;;;;;5108136;28;20408;-76
2023/03/23 10:18:38;;;;;;;17.37;3.13;;;15.20;99.90;;;;;;5108966;28;20408;-77
2023/03/23 10:21:05;;;;;;;17.42;3.45;;;15.90;99.90;;;;;;5109120;28;20427;-78
2023/03/23 10:23:49;;;;;;;14.75;3.25;;;16.30;99.90;;;;;;5109084;28;20897;-77
2023/03/23 10:26:24;;;;;;;17.48;3.25;;;16.70;99.90;;;;;;5109246;28;20409;-78
2023/03/23 10:29:02;;;;;;;17.13;3.58;;;16.80;99.90;;;;;;5098251;28;20412;-76
2023/03/23 10:31:50;;;;;;;14.17;3.30;;;16.10;99.90;;;;;;5108988;27;20892;-77
2023/03/23 10:34:24;;;;;;;19.95;4.25;;;15.70;99.90;;;;;;5090467;28;20468;-77
2023/03/23 10:37:01;;;;;;;14.77;3.10;;;15.80;99.90;;;;;;5109566;28;20444;-78
2023/03/23 10:39:40;;;;;;;13.55;2.88;;;16.20;99.90;;;;;;5107072;28;20416;-77
2023/03/23 10:42:07;;;;;;;14.77;2.90;;;16.60;99.90;;;;;;5100726;28;20400;-77
2023/03/23 10:44:33;;;;;;;15.27;2.97;;;16.80;99.90;;;;;;5108857;28;20415;-77
2023/03/23 10:47:01;;;;;;;18.48;3.88;;;16.60;99.90;;;;;;5090279;28;20435;-78
2023/03/23 10:49:58;;;;;;;19.40;3.58;;;16.30;99.90;;;;;;5092723;28;20805;-78
2023/03/23 10:52:24;;;;;;;16.58;3.17;;;15.80;99.90;;;;;;5107918;27;20412;-78
2023/03/23 10:54:54;;;;;;;16.07;3.03;;;15.50;99.90;;;;;;5090487;28;20465;-78
2023/03/23 10:57:28;;;;;;;14.13;3.33;;;15.10;99.90;;;;;;5089692;28;20430;-78
2023/03/23 11:00:06;;;;;;;17.08;3.50;;;15.30;99.90;;;;;;5078453;28;20506;-78
2023/03/23 11:02:57;;;;;;;18.08;3.25;;;15.00;99.90;;;;;;5089694;28;20494;-78
2023/03/23 11:05:26;;;;;;;15.15;3.13;;;15.20;99.90;;;;;;5075879;28;20940;-78
2023/03/23 11:07:57;;;;;;;16.30;3.55;;;15.20;99.90;;;;;;5104275;28;20397;-78
2023/03/23 11:10:53;;;;;;;13.63;2.83;;;15.50;99.90;;;;;;5109655;28;20412;-78
2023/03/23 11:13:21;;;;;;;16.77;2.87;;;16.10;99.90;;;;;;5081671;27;20405;-78
2023/03/23 11:15:48;;;;;;;13.57;3.05;;;16.10;99.90;;;;;;5091448;28;21149;-78
2023/03/23 11:18:37;;;;;;;18.15;3.47;;;15.90;99.90;;;;;;5111148;28;20479;-77
2023/03/23 11:21:04;;;;;;;19.80;3.78;;;15.70;99.90;;;;;;5081038;28;20440;-77
2023/03/23 11:23:41;;;;;;;16.87;3.80;;;15.50;99.90;;;;;;5087364;28;20459;-78
2023/03/23 11:26:26;;;;;;;15.52;3.78;;;15.50;99.90;;;;;;5090190;28;20416;-78
2023/03/23 11:29:18;;;;;;;21.48;3.78;;;15.90;99.90;;;;;;5079429;28;20438;-78
2023/03/23 11:31:52;;;;;;;17.90;3.75;;;16.50;99.90;;;;;;5081376;28;20428;-78
2023/03/23 11:34:22;;;;;;;13.48;3.05;;;16.70;99.90;;;;;;5107849;28;20916;-78
2023/03/23 11:36:55;;;;;;;15.98;3.70;;;17.10;99.90;;;;;;5102521;28;20509;-78
2023/03/23 11:39:48;;;;;;;17.20;3.42;;;17.70;99.90;;;;;;5106101;28;21090;-78
2023/03/23 11:42:20;;;;;;;14.02;3.63;;;18.20;99.90;;;;;;5108172;28;20487;-78
2023/03/23 11:44:46;;;;;;;13.52;3.10;;;18.50;99.90;;;;;;5106073;28;20396;-78
2023/03/23 11:47:22;;;;;;;13.25;2.70;;;18.80;99.90;;;;;;5089637;28;20490;-78
2023/03/23 11:50:05;;;;;;;11.80;2.75;;;19.10;99.90;;;;;;5108019;28;20425;-78
2023/03/23 11:52:47;;;;;;;12.17;2.23;;;19.30;99.90;;;;;;5105475;28;20418;-78
2023/03/23 11:55:18;;;;;;;16.77;3.10;;;19.30;99.90;;;;;;5103812;28;20404;-78
2023/03/23 11:57:44;;;;;;;12.67;2.40;;;18.70;99.90;;;;;;5088621;28;20513;-78
2023/03/23 12:00:22;;;;;;;13.50;2.72;;;17.90;99.90;;;;;;5102899;28;20560;-78
2023/03/23 12:03:08;;;;;;;10.32;2.83;;;17.80;99.90;;;;;;5111785;28;20509;-78
2023/03/23 12:06:03;;;;;;;10.80;2.33;;;18.10;99.90;;;;;;5114930;27;20482;-78
2023/03/23 12:08:42;;;;;;;8.52;1.70;;;18.60;99.90;;;;;;5114197;27;20412;-78
2023/03/23 12:11:12;;;;;;;13.73;2.30;;;19.10;99.90;;;;;;5076976;28;20416;-78
2023/03/23 12:13:53;;;;;;;10.07;1.90;;;19.60;99.90;;;;;;5098964;27;20415;-78
2023/03/23 12:16:31;;;;;;;;;;;19.80;99.90;;;;;;5113495;28;20047;-78
2023/03/23 12:19:08;;;;;;;;;;;19.70;98.90;;;;;;5113167;27;19931;-78
2023/03/23 12:22:05;;;;;;;8.93;1.70;;;19.90;99.90;;;;;;5094621;28;19934;-78
2023/03/23 12:24:31;;;;;;;10.75;2.03;;;19.90;97.40;;;;;;5109678;28;20464;-78
2023/03/23 12:27:03;;;;;;;9.32;2.00;;;20.10;99.70;;;;;;5093516;28;20412;-78
2023/03/23 12:29:55;;;;;;;11.10;2.17;;;19.60;96.30;;;;;;5111563;28;20411;-78
2023/03/23 12:32:30;;;;;;;10.60;2.13;;;19.50;96.00;;;;;;5071621;28;20401;-78
2023/03/23 12:35:01;;;;;;;;;;;19.70;97.50;;;;;;5113076;28;20127;-78
2023/03/23 12:37:36;;;;;;;;;;;19.80;95.70;;;;;;5095323;27;19933;-78
2023/03/23 12:40:08;;;;;;;;;;;19.70;93.90;;;;;;5092179;28;19924;-80
2023/03/23 12:42:37;;;;;;;;;;;19.60;94.10;;;;;;5085409;27;19927;-78
2023/03/23 12:45:08;;;;;;;;;;;19.70;91.50;;;;;;5113025;28;20334;-77
2023/03/23 12:48:04;;;;;;;7.72;1.20;;;19.80;92.50;;;;;;5113427;27;20119;-77
2023/03/23 12:50:33;;;;;;;;;;;20.00;91.00;;;;;;5112393;28;20143;-79
2023/03/23 12:53:31;;;;;;;;;;;19.80;91.80;;;;;;5108333;27;19928;-79
2023/03/23 12:56:08;;;;;;;;;;;19.60;92.40;;;;;;5045258;28;19920;-76
2023/03/23 12:58:36;;;;;;;;;;;19.70;93.60;;;;;;5112947;27;19919;-79
2023/03/23 13:01:11;;;;;;;;;;;20.00;90.10;;;;;;5112531;27;19935;-79